Plum Branch, South Carolina
Current Conditions -  °F | °C
As of 10:35 AM on Friday 31 Oct 2014 (Local Time) from KHQU Reporting Station
Clear Clear  
Wind Chill: 57°   Ceiling: Unl
Heat Index: 57°   Visibility: 10mi
Dew Point: 53°   Wind: 0mph
Humidity: 85%   Direction: NA
Pressure: 29.96"   Gusts: NA
Location:  33.85°N, 82.26°W
Report Text: KHQU 311435Z AUTO 00000KT 10SM CLR 14/11 A2996 RMK AO1 T01380114
Loading
Personal Weather Stations






























Interactive Weather Map
Tropical Storm Tracking
New forecast layout! Learn more

10-Day Weather Forecast

Advertisements
Track Severe Weather on mobile